Time;durP1;ratioP1;P1;durP2;ratioP2;P2;SDS_P1;SDS_P2;PMS_P1;PMS_P2;Temp;Humidity;BMP_temperature;BMP_pressure;BME280_temperature;BME280_humidity;BME280_pressure;Samples;Min_cycle;Max_cycle;Signal;HPM_P1;HPM_P2
2023/03/26 07:00:54;;;;;;;15.30;4.35;;;;;;;-145.79;89.84;77315.81;5322747;27;20343;-82
2023/03/26 07:03:31;;;;;;;10.40;4.70;;;;;;;-145.79;90.98;77322.16;5322769;28;20050;-82
2023/03/26 07:06:03;;;;;;;13.00;5.68;;;;;;;-145.79;91.38;77326.41;5322204;28;20032;-82
2023/03/26 07:08:34;;;;;;;13.20;5.20;;;;;;;-145.79;91.49;77322.16;5322562;28;20024;-82
2023/03/26 07:11:06;;;;;;;10.13;4.65;;;;;;;-145.79;91.87;77311.56;5322736;28;20051;-82
2023/03/26 07:13:38;;;;;;;11.73;4.47;;;;;;;-145.79;91.46;77313.69;5307338;28;20026;-82
2023/03/26 07:16:10;;;;;;;10.15;4.00;;;;;;;-145.79;91.58;77305.22;5302347;28;20466;-82
2023/03/26 07:18:41;;;;;;;11.40;4.65;;;;;;;-145.79;91.25;77296.72;5301814;28;20108;-82
2023/03/26 07:21:14;;;;;;;12.23;5.80;;;;;;;-145.79;91.13;77294.59;5302753;28;20032;-82
2023/03/26 07:23:46;;;;;;;8.75;3.85;;;;;;;-145.79;91.46;77288.25;5317309;28;20087;-82
2023/03/26 07:26:55;;;;;;;12.80;5.10;;;;;;;-145.79;91.19;77281.91;5321028;28;20099;-82
2023/03/26 07:29:29;;;;;;;7.78;3.83;;;;;;;-145.79;91.13;77271.28;5299317;28;20028;-82
2023/03/26 07:32:03;;;;;;;13.38;4.72;;;;;;;-145.79;90.78;77262.81;5320386;28;20073;-82
2023/03/26 07:35:00;;;;;;;8.90;4.45;;;;;;;-145.79;91.37;77254.34;5319875;28;20024;-82
2023/03/26 07:37:53;;;;;;;10.18;5.88;;;;;;;-145.79;90.63;77256.47;5302408;28;20027;-82
2023/03/26 07:40:46;;;;;;;10.52;5.90;;;;;;;-145.79;90.84;77254.34;5319349;28;20023;-82
2023/03/26 07:43:24;;;;;;;8.57;3.63;;;;;;;-145.79;90.78;77247.97;5299547;28;20024;-82
2023/03/26 07:45:56;;;;;;;10.45;4.97;;;;;;;-145.79;90.95;77247.97;5318621;28;20499;-82
2023/03/26 07:48:39;;;;;;;11.43;4.95;;;;;;;-145.79;90.73;77233.16;5319756;28;20101;-82
2023/03/26 07:51:11;;;;;;;12.93;5.38;;;;;;;-145.79;90.39;77235.25;5311452;28;20016;-82
2023/03/26 07:53:43;;;;;;;10.02;3.85;;;;;;;-145.79;90.35;77231.03;5315351;28;20032;-82
2023/03/26 07:56:17;;;;;;;7.93;4.28;;;;;;;-145.79;90.31;77235.25;5311971;28;20048;-81
2023/03/26 07:58:49;;;;;;;8.73;4.47;;;;;;;-145.79;90.13;77228.91;5314141;28;20036;-81
2023/03/26 08:01:23;;;;;;;9.82;4.13;;;;;;;-145.79;90.37;77231.03;5314644;28;20038;-81
2023/03/26 08:04:30;;;;;;;9.57;4.10;;;;;;;-145.79;90.42;77220.44;5310340;28;20040;-81
2023/03/26 08:07:12;;;;;;;14.93;5.40;;;;;;;-145.79;90.07;77209.81;5301720;28;20047;-81
2023/03/26 08:10:03;;;;;;;8.68;4.40;;;;;;;-145.79;90.42;77224.66;5315530;28;20039;-82
2023/03/26 08:13:03;;;;;;;8.40;4.63;;;;;;;-145.79;90.45;77207.72;5304142;28;20048;-81
2023/03/26 08:15:42;;;;;;;9.20;4.43;;;;;;;-145.79;90.29;77199.22;5213035;28;20044;-82
2023/03/26 08:18:37;;;;;;;13.93;5.60;;;;;;;-145.79;90.80;77203.47;5305221;28;20035;-82
2023/03/26 08:21:15;;;;;;;12.65;6.00;;;;;;;-145.79;90.47;77203.47;5301315;28;20020;-82
2023/03/26 08:24:00;;;;;;;9.90;4.63;;;;;;;-145.79;90.58;77197.09;5301210;28;20016;-80
2023/03/26 08:26:57;;;;;;;5.47;3.50;;;;;;;-145.79;91.01;77190.75;5304224;28;20024;-82
2023/03/26 08:29:40;;;;;;;11.20;4.78;;;;;;;-145.79;90.30;77203.47;5303938;28;20032;-78
2023/03/26 08:32:17;;;;;;;8.25;3.72;;;;;;;-145.79;90.83;77184.41;5304695;28;20442;-82
2023/03/26 08:34:51;;;;;;;11.45;4.55;;;;;;;-145.79;91.03;77178.03;5302616;28;20020;-83
2023/03/26 08:37:22;;;;;;;9.48;4.25;;;;;;;-145.79;90.58;77190.75;5302887;28;20091;-83
2023/03/26 08:39:54;;;;;;;8.95;3.88;;;;;;;-145.79;90.91;77184.41;5305563;28;20138;-83
2023/03/26 08:42:59;;;;;;;9.27;4.75;;;;;;;-145.79;90.79;77180.16;5305655;28;20429;-78
2023/03/26 08:45:56;;;;;;;8.18;3.78;;;;;;;-145.79;90.63;77169.56;5301532;28;20524;-81
2023/03/26 08:48:37;;;;;;;10.27;4.25;;;;;;;-145.79;90.85;77178.03;5305864;28;20031;-82
2023/03/26 08:51:38;;;;;;;9.30;3.95;;;;;;;-145.79;90.80;77165.31;5296911;28;20490;-82
2023/03/26 08:54:21;;;;;;;9.07;3.53;;;;;;;-145.79;90.49;77178.03;5300822;28;20029;-82
2023/03/26 08:57:30;;;;;;;8.55;3.50;;;;;;;-145.79;90.67;77163.19;5302970;28;20071;-80
2023/03/26 09:00:35;;;;;;;10.02;4.45;;;;;;;-145.79;90.40;77163.19;5304039;28;20372;-80
2023/03/26 09:03:32;;;;;;;8.40;4.85;;;;;;;-145.79;90.53;77161.06;5303850;28;20024;-80
2023/03/26 09:06:11;;;;;;;9.82;4.10;;;;;;;-145.79;90.51;77165.31;5302904;28;20024;-72
2023/03/26 09:09:03;;;;;;;8.88;4.07;;;;;;;-145.79;90.26;77169.56;5300685;28;20031;-81
2023/03/26 09:11:46;;;;;;;7.32;4.22;;;;;;;-145.79;90.52;77175.91;5299620;28;20085;-81
2023/03/26 09:14:18;;;;;;;10.98;6.18;;;;;;;-145.79;90.89;77169.56;5299847;28;20114;-80
2023/03/26 09:17:04;;;;;;;8.23;4.75;;;;;;;-145.79;91.13;77171.69;5304145;28;20116;-81
2023/03/26 09:20:09;;;;;;;8.82;4.03;;;;;;;-145.79;91.06;77152.59;5301704;28;20040;-80
2023/03/26 09:23:31;;;;;;;8.60;4.15;;;;;;;-145.79;90.58;77139.88;5302228;28;20051;-80
2023/03/26 09:26:09;;;;;;;9.88;4.47;;;;;;;-145.79;90.78;77142.00;5267547;28;20089;-82
2023/03/26 09:29:08;;;;;;;11.18;5.40;;;;;;;-145.79;90.69;77139.88;5301920;28;20070;-81
2023/03/26 09:32:08;;;;;;;7.47;3.10;;;;;;;-145.79;91.18;77135.66;5281241;28;20050;-80
2023/03/26 09:34:58;;;;;;;8.35;3.85;;;;;;;-145.79;91.13;77142.00;5284255;28;20384;-82
2023/03/26 09:37:58;;;;;;;9.55;3.72;;;;;;;-145.79;90.66;77133.53;5289909;28;20028;-81
2023/03/26 09:40:44;;;;;;;7.93;3.42;;;;;;;-145.79;89.75;77146.25;5302145;28;20024;-82
2023/03/26 09:43:32;;;;;;;6.93;2.95;;;;;;;-145.79;89.73;77148.34;5303234;28;20073;-82
2023/03/26 09:46:27;;;;;;;6.10;2.55;;;;;;;-145.79;86.62;77152.59;5299692;28;20032;-81
2023/03/26 09:49:22;;;;;;;4.25;2.40;;;;;;;-145.79;84.80;77169.56;5299913;28;20123;-79
2023/03/26 09:51:54;;;;;;;6.25;2.55;;;;;;;-145.79;85.36;77156.84;5305332;28;20059;-79
2023/03/26 09:54:38;;;;;;;3.70;2.00;;;;;;;-145.79;84.87;77161.06;5304230;28;20052;-78
2023/03/26 09:57:25;;;;;;;5.82;2.80;;;;;;;-145.79;85.95;77148.34;5298023;28;20514;-79
2023/03/26 10:00:47;;;;;;;6.03;3.20;;;;;;;-145.79;86.86;77148.34;5286282;28;20055;-79
2023/03/26 10:03:27;;;;;;;4.65;3.30;;;;;;;-145.79;87.10;77133.53;5248441;28;20046;-79
2023/03/26 10:06:17;;;;;;;21.63;13.65;;;;;;;-145.79;87.58;77125.03;5292751;28;20035;-79
2023/03/26 10:09:11;;;;;;;11.45;5.50;;;;;;;-145.79;87.07;77127.16;5302246;28;20032;-79
2023/03/26 10:11:57;;;;;;;5.22;2.65;;;;;;;-145.79;85.91;77122.94;5256895;28;20031;-79
2023/03/26 10:14:47;;;;;;;;;;;;;;;-145.79;85.55;77105.97;5305400;28;20020;-82
2023/03/26 10:17:34;;;;;;;6.55;2.13;;;;;;;-145.79;83.91;77131.41;5296965;28;19959;-82
2023/03/26 10:20:27;;;;;;;6.72;2.67;;;;;;;-145.79;83.80;77114.44;5295851;28;20028;-83
2023/03/26 10:23:14;;;;;;;3.92;2.10;;;;;;;-145.79;82.85;77133.53;5303988;28;20371;-82
2023/03/26 10:25:55;;;;;;;3.28;1.90;;;;;;;-145.79;82.21;77129.28;5284015;28;20033;-82
2023/03/26 10:28:47;;;;;;;5.18;2.25;;;;;;;-145.79;82.69;77131.41;5287615;28;20123;-82
2023/03/26 10:31:41;;;;;;;4.90;2.00;;;;;;;-145.79;82.26;77125.03;5284251;28;20056;-82
2023/03/26 10:34:43;;;;;;;4.60;1.90;;;;;;;-145.79;81.62;77131.41;5296050;28;20161;-82
2023/03/26 10:37:45;;;;;;;4.65;1.77;;;;;;;-145.79;82.09;77125.03;5292334;28;20050;-82
2023/03/26 10:40:29;;;;;;;3.85;2.03;;;;;;;-145.79;82.52;77129.28;5291389;28;20035;-82
2023/03/26 10:43:13;;;;;;;4.47;2.30;;;;;;;-145.79;83.25;77127.16;5303178;28;20132;-82
2023/03/26 10:46:28;;;;;;;4.60;2.20;;;;;;;-145.79;83.51;77125.03;5291535;28;20021;-83
2023/03/26 10:49:24;;;;;;;6.80;4.88;;;;;;;-145.79;84.15;77114.44;5182398;28;20150;-81
2023/03/26 10:52:03;;;;;;;5.05;2.45;;;;;;;-145.79;83.89;77122.94;5289394;28;20067;-82
2023/03/26 10:55:34;;;;;;;4.55;2.80;;;;;;;-145.79;83.33;77118.69;5302510;28;20020;-81
2023/03/26 10:58:25;;;;;;;2.88;1.90;;;;;;;-145.79;82.90;77133.53;5187933;28;20037;-83
2023/03/26 11:01:00;;;;;;;5.40;4.53;;;;;;;-145.79;82.44;77129.28;5186818;28;20133;-82
2023/03/26 11:03:50;;;;;;;3.35;1.48;;;;;;;-145.79;81.85;77129.28;5279653;28;20043;-82
2023/03/26 11:06:24;;;;;;;3.38;1.40;;;;;;;-145.79;79.90;77144.13;5303979;28;20105;-82
2023/03/26 11:09:24;;;;;;;4.65;1.85;;;;;;;-145.79;80.41;77131.41;5294844;28;20028;-83
2023/03/26 11:12:17;;;;;;;5.05;1.90;;;;;;;-145.79;80.06;77127.16;5287898;28;20325;-84
2023/03/26 11:14:52;;;;;;;5.38;1.63;;;;;;;-145.79;80.60;77127.16;5283519;28;20040;-83
2023/03/26 11:17:48;;;;;;;1.90;1.20;;;;;;;-145.79;81.08;77114.44;5289454;28;20075;-83
2023/03/26 11:20:45;;;;;;;2.17;1.80;;;;;;;-145.79;81.60;77116.56;5282009;28;20123;-82
2023/03/26 11:23:39;;;;;;;6.40;2.97;;;;;;;-145.79;80.12;77127.16;5282704;28;20059;-82
2023/03/26 11:26:10;;;;;;;2.25;1.42;;;;;;;-145.79;79.34;77131.41;5288786;28;20024;-75
2023/03/26 11:29:02;;;;;;;3.20;2.05;;;;;;;-145.79;78.59;77122.94;5298493;28;20039;-75
2023/03/26 11:31:55;;;;;;;2.03;1.40;;;;;;;-145.79;79.37;77116.56;5299234;28;20082;-75
2023/03/26 11:34:37;;;;;;;2.30;1.58;;;;;;;-145.79;79.95;77127.16;5300818;28;20024;-75
2023/03/26 11:37:25;;;;;;;2.70;1.30;;;;;;;-145.79;80.32;77122.94;5298264;28;20016;-81
2023/03/26 11:40:00;;;;;;;2.40;1.05;;;;;;;-145.79;78.47;77137.75;5304362;28;20032;-80
2023/03/26 11:42:32;;;;;;;1.55;1.33;;;;;;;-145.79;78.08;77146.25;5300455;28;20062;-80
2023/03/26 11:45:15;;;;;;;1.67;1.27;;;;;;;-145.79;79.95;77142.00;5297770;28;20032;-80
2023/03/26 11:47:51;;;;;;;5.68;5.28;;;;;;;-145.79;80.64;77148.34;5300012;28;20104;-82
2023/03/26 11:50:31;;;;;;;3.65;1.67;;;;;;;-145.79;80.34;77131.41;5304006;28;20101;-83
2023/03/26 11:53:11;;;;;;;3.08;1.73;;;;;;;-145.79;79.91;77146.25;5298720;28;20024;-82
2023/03/26 11:55:55;;;;;;;9.45;5.93;;;;;;;-145.79;81.11;77131.41;5304732;28;20111;-82
2023/03/26 11:58:50;;;;;;;2.55;1.60;;;;;;;-145.79;81.44;77135.66;5304110;28;20024;-83
2023/03/26 12:01:29;;;;;;;123.32;110.45;;;;;;;-145.79;81.44;77142.00;5305154;28;20110;-82
2023/03/26 12:04:12;;;;;;;6.18;4.47;;;;;;;-145.79;81.75;77152.59;5306200;28;20041;-83
2023/03/26 12:07:12;;;;;;;4.22;3.78;;;;;;;-145.79;82.46;77133.53;5307902;28;20384;-82
2023/03/26 12:09:56;;;;;;;3.33;2.15;;;;;;;-145.79;81.20;77133.53;5303560;28;20114;-82
2023/03/26 12:12:36;;;;;;;3.63;1.80;;;;;;;-145.79;79.71;77137.75;5306628;28;20020;-82
2023/03/26 12:15:20;;;;;;;2.78;1.80;;;;;;;-145.79;80.00;77137.75;5306383;28;20321;-82
2023/03/26 12:17:55;;;;;;;3.90;2.67;;;;;;;-145.79;80.83;77150.47;5303900;28;20016;-76
2023/03/26 12:20:27;;;;;;;4.35;2.33;;;;;;;-145.79;81.36;77156.84;5301674;28;20066;-82
2023/03/26 12:23:00;;;;;;;2.97;2.20;;;;;;;-145.79;82.60;77146.25;5304948;28;20028;-83
2023/03/26 12:25:36;;;;;;;3.70;3.10;;;;;;;-145.79;82.78;77144.13;5306711;28;20020;-82
2023/03/26 12:28:13;;;;;;;4.57;3.13;;;;;;;-145.79;82.93;77148.34;5305571;28;20077;-77
2023/03/26 12:30:56;;;;;;;2.78;2.38;;;;;;;-145.79;83.49;77142.00;5304701;28;20100;-78
2023/03/26 12:33:33;;;;;;;4.30;2.45;;;;;;;-145.79;82.83;77146.25;5301586;28;20016;-78
2023/03/26 12:36:16;;;;;;;2.33;2.13;;;;;;;-145.79;84.26;77122.94;5299310;28;20032;-78
2023/03/26 12:38:47;;;;;;;4.40;3.30;;;;;;;-145.79;84.00;77127.16;5302953;28;20065;-76
2023/03/26 12:41:31;;;;;;;6.00;4.03;;;;;;;-145.79;84.85;77105.97;5302067;28;20372;-79
2023/03/26 12:44:24;;;;;;;6.00;4.28;;;;;;;-145.79;85.08;77105.97;5299028;28;20016;-82
2023/03/26 12:47:14;;;;;;;4.82;3.30;;;;;;;-145.79;83.30;77101.72;5302978;28;20113;-81
2023/03/26 12:49:48;;;;;;;7.30;5.45;;;;;;;-145.79;84.28;77105.97;5301832;28;20043;-83
2023/03/26 12:52:41;;;;;;;6.55;3.60;;;;;;;-145.79;84.68;77093.25;5304899;28;20491;-82
2023/03/26 12:55:44;;;;;;;4.63;3.47;;;;;;;-145.79;83.46;77101.72;5305225;28;20048;-82
2023/03/26 12:58:37;;;;;;;3.80;2.83;;;;;;;-145.79;83.59;77105.97;5301019;28;20024;-82
2023/03/26 13:01:42;;;;;;;5.43;2.95;;;;;;;-145.79;83.58;77105.97;5303623;28;20043;-82
2023/03/26 13:04:27;;;;;;;7.65;4.18;;;;;;;-145.79;82.72;77114.44;5264016;28;20028;-81
2023/03/26 13:07:20;;;;;;;4.18;3.47;;;;;;;-145.79;84.21;77093.25;5300381;28;20024;-82
2023/03/26 13:10:11;;;;;;;3.90;3.00;;;;;;;-145.79;83.24;77093.25;5308525;28;20105;-83
2023/03/26 13:13:09;;;;;;;2.78;2.40;;;;;;;-145.79;83.53;77093.25;5305609;28;20111;-82
2023/03/26 13:15:49;;;;;;;3.60;1.88;;;;;;;-145.79;81.19;77114.44;5305934;28;20031;-80
2023/03/26 13:18:46;;;;;;;2.55;2.35;;;;;;;-145.79;81.95;77122.94;5301486;28;20088;-83
2023/03/26 13:21:42;;;;;;;3.05;2.00;;;;;;;-145.79;82.54;77118.69;5299106;28;20028;-82
2023/03/26 13:24:32;;;;;;;5.93;3.42;;;;;;;-145.79;82.57;77131.41;5302938;28;20027;-83
2023/03/26 13:27:29;;;;;;;4.75;3.47;;;;;;;-145.79;83.33;77131.41;5305964;28;20050;-83
2023/03/26 13:30:20;;;;;;;;;;;;;;;-145.79;83.78;77114.44;5301781;28;20381;-84
2023/03/26 13:32:58;;;;;;;4.85;3.42;;;;;;;-145.79;83.35;77131.41;5301216;28;19912;-81
2023/03/26 13:35:42;;;;;;;4.75;3.45;;;;;;;-145.79;84.38;77125.03;5297690;28;20036;-81
2023/03/26 13:38:28;;;;;;;4.28;3.15;;;;;;;-145.79;84.07;77131.41;5300910;28;20328;-81
2023/03/26 13:41:07;;;;;;;4.43;2.97;;;;;;;-145.79;84.74;77129.28;5299698;28;20069;-81
2023/03/26 13:44:00;;;;;;;5.68;3.17;;;;;;;-145.79;85.00;77127.16;5300563;28;20024;-81
2023/03/26 13:46:36;;;;;;;5.45;3.55;;;;;;;-145.79;83.90;77156.84;5300268;28;20039;-80
2023/03/26 13:49:14;;;;;;;4.53;3.20;;;;;;;-145.79;84.21;77158.97;5303425;28;20143;-81
2023/03/26 13:51:50;;;;;;;3.83;2.75;;;;;;;-145.79;83.35;77180.16;5303434;28;20024;-80
2023/03/26 13:54:34;;;;;;;2.63;1.73;;;;;;;-145.79;83.01;77186.50;5295882;28;20050;-82
2023/03/26 13:57:12;;;;;;;2.50;1.77;;;;;;;-145.79;82.26;77201.34;5305254;28;20024;-82
2023/03/26 13:59:49;;;;;;;3.50;2.38;;;;;;;-145.79;82.67;77218.31;5302747;28;20051;-83
2023/03/26 14:02:35;;;;;;;3.85;3.17;;;;;;;-145.79;83.14;77209.81;5284192;28;20024;-82
2023/03/26 14:05:11;;;;;;;9.45;8.25;;;;;;;-145.79;82.97;77222.53;5283087;28;20058;-83
2023/03/26 14:07:49;;;;;;;4.38;3.25;;;;;;;-145.79;83.46;77226.78;5282125;28;20036;-81
2023/03/26 14:10:29;;;;;;;4.00;3.60;;;;;;;-145.79;84.37;77228.91;5280445;28;20024;-82
2023/03/26 14:13:09;;;;;;;5.85;3.80;;;;;;;-145.79;84.50;77231.03;5281766;28;20032;-83
2023/03/26 14:15:43;;;;;;;5.13;3.65;;;;;;;-145.79;84.86;77241.63;5281248;28;20020;-83
2023/03/26 14:18:28;;;;;;;7.22;4.63;;;;;;;-145.79;86.14;77233.16;5282309;28;20103;-83
2023/03/26 14:21:17;;;;;;;5.07;4.30;;;;;;;-145.79;86.35;77226.78;5280869;28;20048;-84
2023/03/26 14:24:10;;;;;;;5.90;4.47;;;;;;;-145.79;86.11;77239.50;5283188;28;20354;-83
2023/03/26 14:26:57;;;;;;;6.40;5.07;;;;;;;-145.79;86.04;77254.34;5284508;28;20028;-84
2023/03/26 14:29:36;;;;;;;7.82;5.10;;;;;;;-145.79;86.42;77269.19;5282852;28;20124;-81
2023/03/26 14:32:48;;;;;;;11.88;7.82;;;;;;;-145.79;86.52;77258.56;5288562;28;20107;-83
2023/03/26 14:35:38;;;;;;;12.60;6.38;;;;;;;-145.79;85.22;77273.41;5304820;28;20062;-84
2023/03/26 14:38:32;;;;;;;13.45;7.28;;;;;;;-145.79;85.05;77267.06;5304954;28;20446;-84
2023/03/26 14:41:23;;;;;;;14.50;7.03;;;;;;;-145.79;84.50;77284.00;5304397;28;20031;-82
2023/03/26 14:44:16;;;;;;;18.88;6.93;;;;;;;-145.79;85.04;77296.72;5303784;28;20117;-82
2023/03/26 14:47:21;;;;;;;17.35;7.70;;;;;;;-145.79;85.49;77292.50;5304705;28;20032;-82
2023/03/26 14:50:14;;;;;;;13.88;6.72;;;;;;;-145.79;85.56;77300.97;5306688;28;20355;-82
2023/03/26 14:52:52;;;;;;;11.57;5.13;;;;;;;-145.79;81.91;77332.75;5243337;28;20103;-82
2023/03/26 14:55:42;;;;;;;9.20;4.60;;;;;;;-145.79;81.69;77328.53;5283567;28;20047;-83
2023/03/26 14:58:32;;;;;;;11.43;4.55;;;;;;;-145.79;80.88;77337.00;5284197;28;20024;-82
2023/03/26 15:01:46;;;;;;;9.90;4.40;;;;;;;-145.79;81.10;77334.88;5284243;28;20048;-83
2023/03/26 15:04:42;;;;;;;6.65;3.40;;;;;;;-145.79;81.22;77332.75;5283901;28;20017;-84
2023/03/26 15:07:17;;;;;;;;;;;;;;;-145.79;80.64;77320.03;5283310;28;20067;-79
2023/03/26 15:10:21;;;;;;;12.77;4.70;;;;;;;-145.79;81.42;77324.28;5283358;28;20007;-77
2023/03/26 15:13:23;;;;;;;15.73;10.98;;;;;;;-145.79;80.45;77307.31;5282908;28;20387;-78
2023/03/26 15:16:28;;;;;;;13.20;6.80;;;;;;;-145.79;81.45;77320.03;5289693;28;20036;-83
2023/03/26 15:19:30;;;;;;;11.82;5.53;;;;;;;-145.79;80.37;77326.41;5284510;28;20088;-82
2023/03/26 15:22:39;;;;;;;11.55;4.78;;;;;;;-145.79;80.01;77330.66;5286114;28;20090;-83
2023/03/26 15:25:43;;;;;;;13.43;5.07;;;;;;;-145.79;80.13;77330.66;5290180;28;20042;-83
2023/03/26 15:28:43;;;;;;;11.98;5.30;;;;;;;-145.79;80.19;77334.88;5308697;28;20032;-83
2023/03/26 15:31:35;;;;;;;16.25;5.50;;;;;;;-145.79;79.13;77339.13;5308048;28;20066;-81
2023/03/26 15:34:44;;;;;;;13.40;4.65;;;;;;;-145.79;79.71;77345.47;5307495;28;20032;-82
2023/03/26 15:37:51;;;;;;;13.13;5.07;;;;;;;-145.79;81.02;77343.38;5308123;28;20030;-82
2023/03/26 15:40:30;;;;;;;12.23;4.93;;;;;;;-145.79;80.30;77351.84;5253898;28;20032;-84
2023/03/26 15:43:13;;;;;;;17.98;7.47;;;;;;;-145.79;81.63;77351.84;5308363;28;20028;-82
2023/03/26 15:45:57;;;;;;;12.23;5.45;;;;;;;-145.79;79.73;77377.28;5309736;28;20024;-83
2023/03/26 15:48:41;;;;;;;10.15;4.82;;;;;;;-145.79;80.72;77377.28;5307295;28;20077;-74
2023/03/26 15:51:38;;;;;;;13.65;5.10;;;;;;;-145.79;80.86;77385.75;5307307;28;20032;-74
2023/03/26 15:54:31;;;;;;;11.38;5.35;;;;;;;-145.79;80.47;77396.34;5290452;28;20116;-73
2023/03/26 15:57:15;;;;;;;15.85;5.78;;;;;;;-145.79;81.14;77390.00;5307924;28;20422;-84
2023/03/26 15:59:49;;;;;;;11.73;5.40;;;;;;;-145.79;81.24;77402.72;5307169;28;20048;-81
2023/03/26 16:02:56;;;;;;;17.98;6.60;;;;;;;-145.79;81.66;77404.84;5308787;28;20096;-82
2023/03/26 16:05:33;;;;;;;16.50;7.03;;;;;;;-145.79;81.56;77404.84;5294471;28;20134;-83
2023/03/26 16:08:35;;;;;;;12.70;5.15;;;;;;;-145.79;81.24;77413.31;5306850;28;20443;-83
2023/03/26 16:11:11;;;;;;;11.35;4.97;;;;;;;-145.79;79.81;77428.16;5307259;28;20080;-83
2023/03/26 16:13:48;;;;;;;9.60;4.95;;;;;;;-145.79;80.64;77417.53;5306742;28;20039;-81
2023/03/26 16:16:22;;;;;;;13.05;4.82;;;;;;;-145.79;80.54;77423.91;5306448;28;20073;-82
2023/03/26 16:19:14;;;;;;;13.85;4.35;;;;;;;-145.79;77.03;77436.63;5307145;28;20023;-80
2023/03/26 16:22:00;;;;;;;8.27;4.20;;;;;;;-145.79;75.76;77442.97;5306041;28;20024;-82
2023/03/26 16:24:53;;;;;;;11.88;4.38;;;;;;;-145.79;73.71;77457.81;5307372;28;20116;-81
2023/03/26 16:27:28;;;;;;;9.85;3.97;;;;;;;-145.79;75.22;77466.31;5306184;28;20040;-81
2023/03/26 16:30:26;;;;;;;16.52;5.10;;;;;;;-145.79;73.48;77479.03;5307435;28;20425;-81
